Archival Weather

Snohomish County (Paine Fld)

Everett, Washington (KPAE)

Report from: Tuesday, November 14, 2023 4:53 PM PST
Current time: Monday, June 24, 2024 3:54 AM PDT

Current weather – Weather history – Daily summaries
Weather forecast

Temperature5.0°C (41.0°F)
Dew point2.2°C (36.0°F)
Winds Calm
Visibility10 mi. (16.1 km)
Clouds Sky clear
Altimeter30.01 in.Hg (1016 mB)
Relative humidity82 %
Density altitude-1,220 ft. (-372 m)
Sea-level pressure101.7 kPa (1017 mB, 30.02 in.Hg)
Remarks Automated weather observing station with precipitation discriminator
Flight conditions Visual Meteorological Conditions
Raw dataKPAE 150053Z 00000KT 10SM CLR 05/02 A3001 RMK AO2 SLP167 T00500022
An error has occurred. This application may no longer respond until reloaded. Reload 🗙